sensor_id;sensor_type;location;lat;lon;timestamp;P1;durP1;ratioP1;P2;durP2;ratioP2
45688;SDS011;31400;48.132;20.872;2024-02-28T00:00:56;48.35;;;25.20;;
45688;SDS011;31400;48.132;20.872;2024-02-28T00:03:22;38.33;;;25.33;;
45688;SDS011;31400;48.132;20.872;2024-02-28T00:05:49;40.80;;;23.92;;
45688;SDS011;31400;48.132;20.872;2024-02-28T00:08:15;44.67;;;24.60;;
45688;SDS011;31400;48.132;20.872;2024-02-28T00:10:42;48.25;;;28.73;;
45688;SDS011;31400;48.132;20.872;2024-02-28T00:13:08;45.58;;;26.42;;
45688;SDS011;31400;48.132;20.872;2024-02-28T00:15:34;37.47;;;22.58;;
45688;SDS011;31400;48.132;20.872;2024-02-28T00:18:00;49.65;;;22.42;;
45688;SDS011;31400;48.132;20.872;2024-02-28T00:20:26;41.50;;;24.58;;
45688;SDS011;31400;48.132;20.872;2024-02-28T00:22:53;38.97;;;22.98;;
45688;SDS011;31400;48.132;20.872;2024-02-28T00:25:19;35.80;;;22.55;;
45688;SDS011;31400;48.132;20.872;2024-02-28T00:27:45;43.88;;;23.63;;
45688;SDS011;31400;48.132;20.872;2024-02-28T00:30:11;37.67;;;21.45;;
45688;SDS011;31400;48.132;20.872;2024-02-28T00:32:37;36.03;;;22.27;;
45688;SDS011;31400;48.132;20.872;2024-02-28T00:35:03;33.40;;;19.35;;
45688;SDS011;31400;48.132;20.872;2024-02-28T00:39:55;26.35;;;17.15;;
45688;SDS011;31400;48.132;20.872;2024-02-28T00:42:21;24.65;;;16.73;;
45688;SDS011;31400;48.132;20.872;2024-02-28T00:44:47;37.78;;;18.30;;
45688;SDS011;31400;48.132;20.872;2024-02-28T00:47:13;25.02;;;16.98;;
45688;SDS011;31400;48.132;20.872;2024-02-28T00:49:39;26.63;;;16.50;;
45688;SDS011;31400;48.132;20.872;2024-02-28T00:52:06;35.33;;;17.65;;
45688;SDS011;31400;48.132;20.872;2024-02-28T00:54:32;32.58;;;20.15;;
45688;SDS011;31400;48.132;20.872;2024-02-28T00:56:58;35.72;;;18.63;;
45688;SDS011;31400;48.132;20.872;2024-02-28T00:59:24;32.60;;;20.75;;
45688;SDS011;31400;48.132;20.872;2024-02-28T01:01:50;34.22;;;19.27;;
45688;SDS011;31400;48.132;20.872;2024-02-28T01:04:16;29.73;;;19.00;;
45688;SDS011;31400;48.132;20.872;2024-02-28T01:06:42;35.95;;;20.23;;
45688;SDS011;31400;48.132;20.872;2024-02-28T01:09:08;30.52;;;18.88;;
45688;SDS011;31400;48.132;20.872;2024-02-28T01:11:34;33.20;;;18.48;;
45688;SDS011;31400;48.132;20.872;2024-02-28T01:14:00;22.75;;;15.65;;
45688;SDS011;31400;48.132;20.872;2024-02-28T01:16:26;24.88;;;18.02;;
45688;SDS011;31400;48.132;20.872;2024-02-28T01:18:52;24.67;;;16.75;;
45688;SDS011;31400;48.132;20.872;2024-02-28T01:21:19;28.58;;;16.50;;
45688;SDS011;31400;48.132;20.872;2024-02-28T01:23:45;24.58;;;16.83;;
45688;SDS011;31400;48.132;20.872;2024-02-28T01:26:11;25.40;;;15.85;;
45688;SDS011;31400;48.132;20.872;2024-02-28T01:28:37;27.67;;;17.13;;
45688;SDS011;31400;48.132;20.872;2024-02-28T01:31:03;25.67;;;16.08;;
45688;SDS011;31400;48.132;20.872;2024-02-28T01:33:30;23.40;;;15.27;;
45688;SDS011;31400;48.132;20.872;2024-02-28T01:35:57;28.33;;;15.57;;
45688;SDS011;31400;48.132;20.872;2024-02-28T01:38:23;21.15;;;15.25;;
45688;SDS011;31400;48.132;20.872;2024-02-28T01:40:51;26.67;;;15.07;;
45688;SDS011;31400;48.132;20.872;2024-02-28T01:43:17;36.55;;;16.95;;
45688;SDS011;31400;48.132;20.872;2024-02-28T01:45:43;23.15;;;15.98;;
45688;SDS011;31400;48.132;20.872;2024-02-28T01:48:09;23.80;;;16.15;;
45688;SDS011;31400;48.132;20.872;2024-02-28T01:50:37;29.02;;;15.48;;
45688;SDS011;31400;48.132;20.872;2024-02-28T01:53:03;29.88;;;15.43;;
45688;SDS011;31400;48.132;20.872;2024-02-28T01:55:30;28.42;;;16.17;;
45688;SDS011;31400;48.132;20.872;2024-02-28T01:57:56;35.88;;;17.27;;
45688;SDS011;31400;48.132;20.872;2024-02-28T02:00:22;27.40;;;16.85;;
45688;SDS011;31400;48.132;20.872;2024-02-28T02:02:49;27.70;;;16.73;;
45688;SDS011;31400;48.132;20.872;2024-02-28T02:05:15;25.48;;;15.95;;
45688;SDS011;31400;48.132;20.872;2024-02-28T02:07:45;28.55;;;17.02;;
45688;SDS011;31400;48.132;20.872;2024-02-28T02:10:11;28.35;;;18.65;;
45688;SDS011;31400;48.132;20.872;2024-02-28T02:12:37;39.05;;;18.25;;
45688;SDS011;31400;48.132;20.872;2024-02-28T02:15:04;31.83;;;18.88;;
45688;SDS011;31400;48.132;20.872;2024-02-28T02:17:30;25.17;;;16.42;;
45688;SDS011;31400;48.132;20.872;2024-02-28T02:19:56;23.58;;;17.33;;
45688;SDS011;31400;48.132;20.872;2024-02-28T02:22:22;23.02;;;15.73;;
45688;SDS011;31400;48.132;20.872;2024-02-28T02:24:49;29.77;;;18.30;;
45688;SDS011;31400;48.132;20.872;2024-02-28T02:27:15;23.92;;;15.45;;
45688;SDS011;31400;48.132;20.872;2024-02-28T02:29:41;25.15;;;16.70;;
45688;SDS011;31400;48.132;20.872;2024-02-28T02:32:07;32.25;;;19.05;;
45688;SDS011;31400;48.132;20.872;2024-02-28T02:34:33;36.22;;;19.00;;
45688;SDS011;31400;48.132;20.872;2024-02-28T02:36:59;31.08;;;17.95;;
45688;SDS011;31400;48.132;20.872;2024-02-28T02:39:25;26.83;;;17.75;;
45688;SDS011;31400;48.132;20.872;2024-02-28T02:41:51;28.70;;;19.23;;
45688;SDS011;31400;48.132;20.872;2024-02-28T02:44:17;27.40;;;17.70;;
45688;SDS011;31400;48.132;20.872;2024-02-28T02:46:43;24.92;;;17.13;;
45688;SDS011;31400;48.132;20.872;2024-02-28T02:49:09;27.98;;;17.55;;
45688;SDS011;31400;48.132;20.872;2024-02-28T02:51:35;26.33;;;18.13;;
45688;SDS011;31400;48.132;20.872;2024-02-28T02:54:01;30.67;;;18.10;;
45688;SDS011;31400;48.132;20.872;2024-02-28T02:56:27;26.70;;;17.50;;
45688;SDS011;31400;48.132;20.872;2024-02-28T02:58:53;35.90;;;18.23;;
45688;SDS011;31400;48.132;20.872;2024-02-28T03:01:19;33.03;;;17.23;;
45688;SDS011;31400;48.132;20.872;2024-02-28T03:03:45;24.48;;;16.70;;
45688;SDS011;31400;48.132;20.872;2024-02-28T03:06:11;29.05;;;17.02;;
45688;SDS011;31400;48.132;20.872;2024-02-28T03:08:37;22.60;;;15.95;;
45688;SDS011;31400;48.132;20.872;2024-02-28T03:11:03;27.25;;;16.63;;
45688;SDS011;31400;48.132;20.872;2024-02-28T03:13:32;27.67;;;17.63;;
45688;SDS011;31400;48.132;20.872;2024-02-28T03:16:06;26.85;;;17.80;;
45688;SDS011;31400;48.132;20.872;2024-02-28T03:18:33;24.65;;;17.00;;
45688;SDS011;31400;48.132;20.872;2024-02-28T03:20:59;36.15;;;16.52;;
45688;SDS011;31400;48.132;20.872;2024-02-28T03:23:25;29.63;;;16.77;;
45688;SDS011;31400;48.132;20.872;2024-02-28T03:25:51;26.60;;;16.23;;
45688;SDS011;31400;48.132;20.872;2024-02-28T03:28:17;26.65;;;16.42;;
45688;SDS011;31400;48.132;20.872;2024-02-28T03:30:43;19.63;;;13.63;;
45688;SDS011;31400;48.132;20.872;2024-02-28T03:33:09;20.50;;;15.18;;
45688;SDS011;31400;48.132;20.872;2024-02-28T03:35:35;37.55;;;16.70;;
45688;SDS011;31400;48.132;20.872;2024-02-28T03:38:01;26.92;;;16.05;;
45688;SDS011;31400;48.132;20.872;2024-02-28T03:40:27;27.63;;;15.23;;
45688;SDS011;31400;48.132;20.872;2024-02-28T03:42:53;23.50;;;14.52;;
45688;SDS011;31400;48.132;20.872;2024-02-28T03:45:19;27.48;;;14.30;;
45688;SDS011;31400;48.132;20.872;2024-02-28T03:47:45;30.92;;;14.43;;
45688;SDS011;31400;48.132;20.872;2024-02-28T03:50:11;25.52;;;14.13;;
45688;SDS011;31400;48.132;20.872;2024-02-28T03:52:37;26.50;;;14.52;;
45688;SDS011;31400;48.132;20.872;2024-02-28T03:55:03;22.83;;;12.45;;
45688;SDS011;31400;48.132;20.872;2024-02-28T03:57:29;20.63;;;13.35;;
45688;SDS011;31400;48.132;20.872;2024-02-28T03:59:55;29.25;;;14.18;;
45688;SDS011;31400;48.132;20.872;2024-02-28T04:02:21;21.45;;;14.18;;
45688;SDS011;31400;48.132;20.872;2024-02-28T04:04:47;21.85;;;12.27;;
45688;SDS011;31400;48.132;20.872;2024-02-28T04:07:13;27.30;;;14.52;;
45688;SDS011;31400;48.132;20.872;2024-02-28T04:09:39;22.05;;;12.90;;
45688;SDS011;31400;48.132;20.872;2024-02-28T04:12:05;29.42;;;15.68;;
45688;SDS011;31400;48.132;20.872;2024-02-28T04:14:31;24.48;;;15.90;;
45688;SDS011;31400;48.132;20.872;2024-02-28T04:16:57;25.00;;;15.85;;
45688;SDS011;31400;48.132;20.872;2024-02-28T04:19:23;28.13;;;14.85;;
45688;SDS011;31400;48.132;20.872;2024-02-28T04:21:49;23.60;;;15.27;;
45688;SDS011;31400;48.132;20.872;2024-02-28T04:24:15;24.73;;;16.20;;
45688;SDS011;31400;48.132;20.872;2024-02-28T04:26:41;29.00;;;17.88;;
45688;SDS011;31400;48.132;20.872;2024-02-28T04:29:07;31.40;;;17.88;;
45688;SDS011;31400;48.132;20.872;2024-02-28T04:31:38;24.48;;;16.58;;
45688;SDS011;31400;48.132;20.872;2024-02-28T04:34:05;29.15;;;18.40;;
45688;SDS011;31400;48.132;20.872;2024-02-28T04:36:31;24.42;;;16.13;;
45688;SDS011;31400;48.132;20.872;2024-02-28T04:38:57;25.50;;;15.25;;
45688;SDS011;31400;48.132;20.872;2024-02-28T04:41:23;30.95;;;17.42;;
45688;SDS011;31400;48.132;20.872;2024-02-28T04:43:49;30.85;;;19.60;;
45688;SDS011;31400;48.132;20.872;2024-02-28T04:46:15;34.50;;;19.10;;
45688;SDS011;31400;48.132;20.872;2024-02-28T04:48:41;29.25;;;16.75;;
45688;SDS011;31400;48.132;20.872;2024-02-28T04:51:07;31.52;;;17.77;;
45688;SDS011;31400;48.132;20.872;2024-02-28T04:53:33;31.70;;;15.85;;
45688;SDS011;31400;48.132;20.872;2024-02-28T04:55:59;31.10;;;15.75;;
45688;SDS011;31400;48.132;20.872;2024-02-28T05:00:51;26.15;;;15.05;;
45688;SDS011;31400;48.132;20.872;2024-02-28T05:03:17;19.27;;;13.20;;
45688;SDS011;31400;48.132;20.872;2024-02-28T05:05:43;21.60;;;15.00;;
45688;SDS011;31400;48.132;20.872;2024-02-28T05:08:09;22.67;;;14.73;;
45688;SDS011;31400;48.132;20.872;2024-02-28T05:10:35;23.70;;;14.95;;
45688;SDS011;31400;48.132;20.872;2024-02-28T05:13:01;25.75;;;14.55;;
45688;SDS011;31400;48.132;20.872;2024-02-28T05:15:28;23.77;;;13.65;;
45688;SDS011;31400;48.132;20.872;2024-02-28T05:17:54;24.98;;;14.50;;
45688;SDS011;31400;48.132;20.872;2024-02-28T05:20:20;35.45;;;16.35;;
45688;SDS011;31400;48.132;20.872;2024-02-28T05:22:46;26.92;;;14.77;;
45688;SDS011;31400;48.132;20.872;2024-02-28T05:25:12;28.40;;;13.63;;
45688;SDS011;31400;48.132;20.872;2024-02-28T05:27:38;38.10;;;16.25;;
45688;SDS011;31400;48.132;20.872;2024-02-28T05:30:04;23.02;;;15.82;;
45688;SDS011;31400;48.132;20.872;2024-02-28T05:32:31;32.08;;;15.15;;
45688;SDS011;31400;48.132;20.872;2024-02-28T05:34:57;27.58;;;14.38;;
45688;SDS011;31400;48.132;20.872;2024-02-28T05:37:23;22.98;;;14.88;;
45688;SDS011;31400;48.132;20.872;2024-02-28T05:39:50;27.70;;;16.17;;
45688;SDS011;31400;48.132;20.872;2024-02-28T05:42:16;24.92;;;16.30;;
45688;SDS011;31400;48.132;20.872;2024-02-28T05:44:47;30.92;;;15.38;;
45688;SDS011;31400;48.132;20.872;2024-02-28T05:49:42;25.35;;;15.55;;
45688;SDS011;31400;48.132;20.872;2024-02-28T05:52:08;26.58;;;15.48;;
45688;SDS011;31400;48.132;20.872;2024-02-28T05:54:34;29.23;;;15.50;;
45688;SDS011;31400;48.132;20.872;2024-02-28T05:57:00;26.67;;;17.35;;
45688;SDS011;31400;48.132;20.872;2024-02-28T05:59:26;27.73;;;16.30;;
45688;SDS011;31400;48.132;20.872;2024-02-28T06:01:52;24.20;;;16.23;;
45688;SDS011;31400;48.132;20.872;2024-02-28T06:04:18;26.20;;;15.68;;
45688;SDS011;31400;48.132;20.872;2024-02-28T06:06:44;31.90;;;17.17;;
45688;SDS011;31400;48.132;20.872;2024-02-28T06:09:10;31.25;;;18.60;;
45688;SDS011;31400;48.132;20.872;2024-02-28T06:11:36;27.15;;;17.10;;
45688;SDS011;31400;48.132;20.872;2024-02-28T06:14:02;31.50;;;17.13;;
45688;SDS011;31400;48.132;20.872;2024-02-28T06:16:29;33.45;;;18.45;;
45688;SDS011;31400;48.132;20.872;2024-02-28T06:18:55;30.35;;;18.13;;
45688;SDS011;31400;48.132;20.872;2024-02-28T06:21:21;29.90;;;18.70;;
45688;SDS011;31400;48.132;20.872;2024-02-28T06:23:48;26.67;;;16.20;;
45688;SDS011;31400;48.132;20.872;2024-02-28T06:26:14;23.73;;;15.30;;
45688;SDS011;31400;48.132;20.872;2024-02-28T06:28:45;20.77;;;13.85;;
45688;SDS011;31400;48.132;20.872;2024-02-28T06:31:14;24.65;;;13.65;;
45688;SDS011;31400;48.132;20.872;2024-02-28T06:33:41;26.55;;;13.98;;
45688;SDS011;31400;48.132;20.872;2024-02-28T06:36:07;15.45;;;12.55;;
45688;SDS011;31400;48.132;20.872;2024-02-28T06:38:33;36.88;;;15.48;;
45688;SDS011;31400;48.132;20.872;2024-02-28T06:41:01;28.25;;;13.88;;
45688;SDS011;31400;48.132;20.872;2024-02-28T06:43:27;20.85;;;14.02;;
45688;SDS011;31400;48.132;20.872;2024-02-28T06:45:53;32.30;;;13.40;;
45688;SDS011;31400;48.132;20.872;2024-02-28T06:48:19;24.15;;;14.95;;
45688;SDS011;31400;48.132;20.872;2024-02-28T06:50:45;20.45;;;13.70;;
45688;SDS011;31400;48.132;20.872;2024-02-28T06:53:11;19.35;;;13.50;;
45688;SDS011;31400;48.132;20.872;2024-02-28T06:55:37;23.33;;;14.88;;
45688;SDS011;31400;48.132;20.872;2024-02-28T06:58:03;26.67;;;14.43;;
45688;SDS011;31400;48.132;20.872;2024-02-28T07:00:29;29.23;;;15.18;;
45688;SDS011;31400;48.132;20.872;2024-02-28T07:02:55;27.35;;;16.10;;
45688;SDS011;31400;48.132;20.872;2024-02-28T07:05:21;29.10;;;17.48;;
45688;SDS011;31400;48.132;20.872;2024-02-28T07:07:47;30.98;;;16.95;;
45688;SDS011;31400;48.132;20.872;2024-02-28T07:10:13;23.30;;;16.50;;
45688;SDS011;31400;48.132;20.872;2024-02-28T07:12:39;29.10;;;16.80;;
45688;SDS011;31400;48.132;20.872;2024-02-28T07:15:05;35.58;;;16.30;;
45688;SDS011;31400;48.132;20.872;2024-02-28T07:17:31;23.73;;;12.93;;
45688;SDS011;31400;48.132;20.872;2024-02-28T07:19:57;18.83;;;13.88;;
45688;SDS011;31400;48.132;20.872;2024-02-28T07:22:23;23.08;;;13.13;;
45688;SDS011;31400;48.132;20.872;2024-02-28T07:24:49;21.88;;;13.13;;
45688;SDS011;31400;48.132;20.872;2024-02-28T07:27:15;22.17;;;13.98;;
45688;SDS011;31400;48.132;20.872;2024-02-28T07:29:41;21.42;;;13.48;;
45688;SDS011;31400;48.132;20.872;2024-02-28T07:32:07;27.38;;;15.07;;
45688;SDS011;31400;48.132;20.872;2024-02-28T07:34:33;26.60;;;15.50;;
45688;SDS011;31400;48.132;20.872;2024-02-28T07:36:59;25.05;;;14.93;;
45688;SDS011;31400;48.132;20.872;2024-02-28T07:39:25;22.75;;;12.80;;
45688;SDS011;31400;48.132;20.872;2024-02-28T07:41:52;25.88;;;13.63;;
45688;SDS011;31400;48.132;20.872;2024-02-28T07:44:18;25.35;;;13.43;;
45688;SDS011;31400;48.132;20.872;2024-02-28T07:46:44;29.35;;;14.38;;
45688;SDS011;31400;48.132;20.872;2024-02-28T07:49:10;24.55;;;14.25;;
45688;SDS011;31400;48.132;20.872;2024-02-28T07:51:36;27.27;;;14.93;;
45688;SDS011;31400;48.132;20.872;2024-02-28T07:54:02;26.58;;;14.10;;
45688;SDS011;31400;48.132;20.872;2024-02-28T07:56:28;20.48;;;13.27;;
45688;SDS011;31400;48.132;20.872;2024-02-28T07:58:55;23.75;;;14.57;;
45688;SDS011;31400;48.132;20.872;2024-02-28T08:01:21;23.50;;;14.15;;
45688;SDS011;31400;48.132;20.872;2024-02-28T08:03:47;34.25;;;13.55;;
45688;SDS011;31400;48.132;20.872;2024-02-28T08:06:13;26.45;;;14.13;;
45688;SDS011;31400;48.132;20.872;2024-02-28T08:08:43;23.80;;;13.88;;
45688;SDS011;31400;48.132;20.872;2024-02-28T08:11:10;24.65;;;13.98;;
45688;SDS011;31400;48.132;20.872;2024-02-28T08:13:36;24.92;;;14.45;;
45688;SDS011;31400;48.132;20.872;2024-02-28T08:16:02;21.70;;;12.77;;
45688;SDS011;31400;48.132;20.872;2024-02-28T08:18:28;23.92;;;14.25;;
45688;SDS011;31400;48.132;20.872;2024-02-28T08:20:54;28.63;;;14.90;;
45688;SDS011;31400;48.132;20.872;2024-02-28T08:23:22;25.83;;;13.68;;
45688;SDS011;31400;48.132;20.872;2024-02-28T08:28:14;24.75;;;14.95;;
45688;SDS011;31400;48.132;20.872;2024-02-28T08:30:40;23.00;;;12.63;;
45688;SDS011;31400;48.132;20.872;2024-02-28T08:33:06;24.30;;;13.65;;
45688;SDS011;31400;48.132;20.872;2024-02-28T08:35:34;24.42;;;14.55;;
45688;SDS011;31400;48.132;20.872;2024-02-28T08:38:00;26.98;;;13.88;;
45688;SDS011;31400;48.132;20.872;2024-02-28T08:40:27;17.92;;;13.65;;
45688;SDS011;31400;48.132;20.872;2024-02-28T08:42:53;20.08;;;13.40;;
45688;SDS011;31400;48.132;20.872;2024-02-28T08:45:19;21.38;;;12.85;;
45688;SDS011;31400;48.132;20.872;2024-02-28T08:47:45;23.13;;;13.55;;
45688;SDS011;31400;48.132;20.872;2024-02-28T08:50:11;19.08;;;11.50;;
45688;SDS011;31400;48.132;20.872;2024-02-28T08:52:37;21.10;;;12.38;;
45688;SDS011;31400;48.132;20.872;2024-02-28T08:55:03;18.50;;;11.85;;
45688;SDS011;31400;48.132;20.872;2024-02-28T08:57:30;24.25;;;12.48;;
45688;SDS011;31400;48.132;20.872;2024-02-28T08:59:56;23.88;;;12.07;;
45688;SDS011;31400;48.132;20.872;2024-02-28T09:02:22;23.17;;;12.10;;
45688;SDS011;31400;48.132;20.872;2024-02-28T09:04:48;27.52;;;12.68;;
45688;SDS011;31400;48.132;20.872;2024-02-28T09:07:17;19.65;;;12.30;;
45688;SDS011;31400;48.132;20.872;2024-02-28T09:09:46;17.80;;;12.25;;
45688;SDS011;31400;48.132;20.872;2024-02-28T09:12:12;22.50;;;11.45;;
45688;SDS011;31400;48.132;20.872;2024-02-28T09:14:39;28.23;;;13.48;;
45688;SDS011;31400;48.132;20.872;2024-02-28T09:17:05;24.48;;;11.27;;
45688;SDS011;31400;48.132;20.872;2024-02-28T09:19:31;17.73;;;11.88;;
45688;SDS011;31400;48.132;20.872;2024-02-28T09:21:57;18.50;;;11.75;;
45688;SDS011;31400;48.132;20.872;2024-02-28T09:24:23;17.23;;;10.93;;
45688;SDS011;31400;48.132;20.872;2024-02-28T09:26:49;20.95;;;10.75;;
45688;SDS011;31400;48.132;20.872;2024-02-28T09:29:15;18.88;;;11.48;;
45688;SDS011;31400;48.132;20.872;2024-02-28T09:31:42;21.60;;;11.65;;
45688;SDS011;31400;48.132;20.872;2024-02-28T09:34:15;16.83;;;11.23;;
45688;SDS011;31400;48.132;20.872;2024-02-28T09:36:41;26.13;;;11.52;;
45688;SDS011;31400;48.132;20.872;2024-02-28T09:39:09;17.38;;;11.77;;
45688;SDS011;31400;48.132;20.872;2024-02-28T09:41:35;20.15;;;12.07;;
45688;SDS011;31400;48.132;20.872;2024-02-28T09:44:02;21.23;;;12.05;;
45688;SDS011;31400;48.132;20.872;2024-02-28T09:46:28;16.88;;;10.60;;
45688;SDS011;31400;48.132;20.872;2024-02-28T09:48:54;20.85;;;11.98;;
45688;SDS011;31400;48.132;20.872;2024-02-28T09:51:21;19.35;;;11.18;;
45688;SDS011;31400;48.132;20.872;2024-02-28T09:53:49;28.70;;;11.50;;
45688;SDS011;31400;48.132;20.872;2024-02-28T09:56:15;17.40;;;10.85;;
45688;SDS011;31400;48.132;20.872;2024-02-28T09:58:42;18.40;;;11.38;;
45688;SDS011;31400;48.132;20.872;2024-02-28T10:01:08;25.02;;;11.65;;
45688;SDS011;31400;48.132;20.872;2024-02-28T10:06:00;18.40;;;9.88;;
45688;SDS011;31400;48.132;20.872;2024-02-28T10:08:26;25.75;;;10.52;;
45688;SDS011;31400;48.132;20.872;2024-02-28T10:10:54;17.70;;;10.95;;
45688;SDS011;31400;48.132;20.872;2024-02-28T10:13:21;18.98;;;9.70;;
45688;SDS011;31400;48.132;20.872;2024-02-28T10:15:50;13.65;;;8.63;;
45688;SDS011;31400;48.132;20.872;2024-02-28T10:18:16;17.45;;;8.80;;
45688;SDS011;31400;48.132;20.872;2024-02-28T10:20:43;14.60;;;8.48;;
45688;SDS011;31400;48.132;20.872;2024-02-28T10:23:09;19.48;;;9.25;;
45688;SDS011;31400;48.132;20.872;2024-02-28T10:25:41;20.23;;;9.70;;
45688;SDS011;31400;48.132;20.872;2024-02-28T10:28:08;18.10;;;9.25;;
45688;SDS011;31400;48.132;20.872;2024-02-28T10:30:39;16.42;;;9.90;;
45688;SDS011;31400;48.132;20.872;2024-02-28T10:33:10;16.20;;;8.90;;
45688;SDS011;31400;48.132;20.872;2024-02-28T10:35:38;22.25;;;8.30;;
45688;SDS011;31400;48.132;20.872;2024-02-28T10:38:04;20.95;;;9.32;;
45688;SDS011;31400;48.132;20.872;2024-02-28T10:42:57;16.30;;;7.93;;
45688;SDS011;31400;48.132;20.872;2024-02-28T10:47:50;17.90;;;8.27;;
45688;SDS011;31400;48.132;20.872;2024-02-28T10:50:17;23.67;;;9.15;;
45688;SDS011;31400;48.132;20.872;2024-02-28T10:55:09;20.35;;;8.05;;
45688;SDS011;31400;48.132;20.872;2024-02-28T11:00:01;12.30;;;7.13;;
45688;SDS011;31400;48.132;20.872;2024-02-28T11:02:29;15.98;;;7.05;;
45688;SDS011;31400;48.132;20.872;2024-02-28T11:04:56;14.25;;;7.82;;
45688;SDS011;31400;48.132;20.872;2024-02-28T11:07:24;22.58;;;7.28;;
45688;SDS011;31400;48.132;20.872;2024-02-28T11:09:56;13.43;;;7.38;;
45688;SDS011;31400;48.132;20.872;2024-02-28T11:12:25;11.88;;;7.53;;
45688;SDS011;31400;48.132;20.872;2024-02-28T11:14:58;26.52;;;6.78;;
45688;SDS011;31400;48.132;20.872;2024-02-28T11:17:26;19.77;;;7.45;;
45688;SDS011;31400;48.132;20.872;2024-02-28T11:19:53;14.95;;;7.70;;
45688;SDS011;31400;48.132;20.872;2024-02-28T11:22:20;13.57;;;6.68;;
45688;SDS011;31400;48.132;20.872;2024-02-28T11:24:46;17.30;;;7.32;;
45688;SDS011;31400;48.132;20.872;2024-02-28T11:27:14;16.15;;;6.97;;
45688;SDS011;31400;48.132;20.872;2024-02-28T11:29:41;21.58;;;6.43;;
45688;SDS011;31400;48.132;20.872;2024-02-28T11:34:36;15.23;;;6.50;;
45688;SDS011;31400;48.132;20.872;2024-02-28T11:37:04;13.30;;;5.93;;
45688;SDS011;31400;48.132;20.872;2024-02-28T11:39:30;13.07;;;5.90;;
45688;SDS011;31400;48.132;20.872;2024-02-28T11:42:18;17.13;;;6.47;;
45688;SDS011;31400;48.132;20.872;2024-02-28T11:44:43;11.38;;;6.28;;
45688;SDS011;31400;48.132;20.872;2024-02-28T11:47:19;20.48;;;7.50;;
45688;SDS011;31400;48.132;20.872;2024-02-28T11:49:45;20.70;;;6.10;;
45688;SDS011;31400;48.132;20.872;2024-02-28T11:52:11;14.02;;;6.82;;
45688;SDS011;31400;48.132;20.872;2024-02-28T11:54:39;23.38;;;5.85;;
45688;SDS011;31400;48.132;20.872;2024-02-28T11:57:05;10.07;;;5.43;;
45688;SDS011;31400;48.132;20.872;2024-02-28T12:01:57;13.70;;;5.30;;
45688;SDS011;31400;48.132;20.872;2024-02-28T12:04:26;13.80;;;5.25;;
45688;SDS011;31400;48.132;20.872;2024-02-28T12:06:52;8.88;;;5.22;;
45688;SDS011;31400;48.132;20.872;2024-02-28T12:09:18;28.17;;;5.90;;
45688;SDS011;31400;48.132;20.872;2024-02-28T12:11:44;17.33;;;6.18;;
45688;SDS011;31400;48.132;20.872;2024-02-28T12:16:36;14.02;;;5.30;;
45688;SDS011;31400;48.132;20.872;2024-02-28T12:19:03;16.67;;;5.05;;
45688;SDS011;31400;48.132;20.872;2024-02-28T12:21:30;13.80;;;6.05;;
45688;SDS011;31400;48.132;20.872;2024-02-28T12:23:56;13.75;;;5.78;;
45688;SDS011;31400;48.132;20.872;2024-02-28T12:26:23;11.02;;;5.13;;
45688;SDS011;31400;48.132;20.872;2024-02-28T12:28:49;13.88;;;5.13;;
45688;SDS011;31400;48.132;20.872;2024-02-28T12:31:15;11.20;;;5.22;;
45688;SDS011;31400;48.132;20.872;2024-02-28T12:33:41;9.85;;;4.80;;
45688;SDS011;31400;48.132;20.872;2024-02-28T12:38:33;11.98;;;5.50;;
45688;SDS011;31400;48.132;20.872;2024-02-28T12:40:59;16.55;;;6.35;;
45688;SDS011;31400;48.132;20.872;2024-02-28T12:43:25;17.80;;;5.35;;
45688;SDS011;31400;48.132;20.872;2024-02-28T12:45:51;13.30;;;5.50;;
45688;SDS011;31400;48.132;20.872;2024-02-28T12:48:17;14.35;;;5.38;;
45688;SDS011;31400;48.132;20.872;2024-02-28T12:50:43;15.65;;;4.38;;
45688;SDS011;31400;48.132;20.872;2024-02-28T12:53:09;5.85;;;4.60;;
45688;SDS011;31400;48.132;20.872;2024-02-28T12:55:35;6.35;;;4.68;;
45688;SDS011;31400;48.132;20.872;2024-02-28T12:58:01;12.00;;;5.88;;
45688;SDS011;31400;48.132;20.872;2024-02-28T13:00:30;23.88;;;6.15;;
45688;SDS011;31400;48.132;20.872;2024-02-28T13:02:56;17.90;;;6.55;;
45688;SDS011;31400;48.132;20.872;2024-02-28T13:05:22;13.90;;;4.93;;
45688;SDS011;31400;48.132;20.872;2024-02-28T13:07:48;14.55;;;5.78;;
45688;SDS011;31400;48.132;20.872;2024-02-28T13:10:14;16.05;;;6.07;;
45688;SDS011;31400;48.132;20.872;2024-02-28T13:12:40;13.68;;;5.40;;
45688;SDS011;31400;48.132;20.872;2024-02-28T13:15:06;8.95;;;5.32;;
45688;SDS011;31400;48.132;20.872;2024-02-28T13:17:33;20.23;;;6.60;;
45688;SDS011;31400;48.132;20.872;2024-02-28T13:19:59;11.10;;;5.32;;
45688;SDS011;31400;48.132;20.872;2024-02-28T13:22:25;12.50;;;5.03;;
45688;SDS011;31400;48.132;20.872;2024-02-28T13:24:51;15.60;;;5.97;;
45688;SDS011;31400;48.132;20.872;2024-02-28T13:27:17;12.20;;;5.97;;
45688;SDS011;31400;48.132;20.872;2024-02-28T13:29:43;8.20;;;4.75;;
45688;SDS011;31400;48.132;20.872;2024-02-28T13:32:09;17.38;;;6.35;;
45688;SDS011;31400;48.132;20.872;2024-02-28T13:34:35;11.35;;;5.00;;
45688;SDS011;31400;48.132;20.872;2024-02-28T13:37:01;14.18;;;5.90;;
45688;SDS011;31400;48.132;20.872;2024-02-28T13:39:27;11.40;;;4.82;;
45688;SDS011;31400;48.132;20.872;2024-02-28T13:41:54;14.45;;;4.82;;
45688;SDS011;31400;48.132;20.872;2024-02-28T13:44:20;14.98;;;5.13;;
45688;SDS011;31400;48.132;20.872;2024-02-28T13:46:46;16.80;;;6.38;;
45688;SDS011;31400;48.132;20.872;2024-02-28T13:49:13;12.25;;;5.82;;
45688;SDS011;31400;48.132;20.872;2024-02-28T13:51:39;11.10;;;5.78;;
45688;SDS011;31400;48.132;20.872;2024-02-28T13:54:05;13.75;;;5.20;;
45688;SDS011;31400;48.132;20.872;2024-02-28T13:56:31;10.55;;;5.88;;
45688;SDS011;31400;48.132;20.872;2024-02-28T13:58:57;19.60;;;6.80;;
45688;SDS011;31400;48.132;20.872;2024-02-28T14:01:23;15.88;;;6.35;;
45688;SDS011;31400;48.132;20.872;2024-02-28T14:03:49;13.55;;;5.95;;
45688;SDS011;31400;48.132;20.872;2024-02-28T14:06:15;18.27;;;6.47;;
45688;SDS011;31400;48.132;20.872;2024-02-28T14:08:41;12.77;;;6.18;;
45688;SDS011;31400;48.132;20.872;2024-02-28T14:11:07;15.95;;;6.72;;
45688;SDS011;31400;48.132;20.872;2024-02-28T14:15:59;8.77;;;5.88;;
45688;SDS011;31400;48.132;20.872;2024-02-28T14:18:25;12.80;;;6.47;;
45688;SDS011;31400;48.132;20.872;2024-02-28T14:20:51;14.10;;;7.30;;
45688;SDS011;31400;48.132;20.872;2024-02-28T14:23:17;9.48;;;6.25;;
45688;SDS011;31400;48.132;20.872;2024-02-28T14:25:43;12.27;;;5.90;;
45688;SDS011;31400;48.132;20.872;2024-02-28T14:28:09;25.20;;;7.30;;
45688;SDS011;31400;48.132;20.872;2024-02-28T14:30:35;12.50;;;6.28;;
45688;SDS011;31400;48.132;20.872;2024-02-28T14:33:01;22.83;;;5.50;;
45688;SDS011;31400;48.132;20.872;2024-02-28T14:35:28;8.88;;;5.57;;
45688;SDS011;31400;48.132;20.872;2024-02-28T14:37:54;17.58;;;6.18;;
45688;SDS011;31400;48.132;20.872;2024-02-28T14:40:20;11.65;;;5.70;;
45688;SDS011;31400;48.132;20.872;2024-02-28T14:42:46;12.55;;;6.90;;